createdAt,value
2022-12-07T00:00:23.082Z,18.30
2022-12-07T00:03:13.871Z,18.43
2022-12-07T00:08:51.294Z,20.27
2022-12-07T00:11:39.972Z,18.80
2022-12-07T00:17:18.721Z,19.90
2022-12-07T00:26:00.952Z,19.30
2022-12-07T00:28:49.968Z,19.77
2022-12-07T00:34:35.049Z,19.83
2022-12-07T00:40:19.493Z,19.97
2022-12-07T00:45:49.393Z,20.47
2022-12-07T00:51:27.948Z,19.57
2022-12-07T00:57:02.952Z,20.30
2022-12-07T01:02:37.905Z,17.70
2022-12-07T01:05:26.059Z,18.07
2022-12-07T01:08:14.976Z,18.87
2022-12-07T01:11:04.794Z,19.77
2022-12-07T01:13:55.085Z,19.00
2022-12-07T01:19:28.276Z,19.20
2022-12-07T01:22:17.272Z,19.90
2022-12-07T01:27:55.512Z,20.40
2022-12-07T01:33:33.661Z,19.70
2022-12-07T01:36:23.600Z,18.93
2022-12-07T01:39:12.925Z,19.10
2022-12-07T01:42:02.341Z,17.73
2022-12-07T01:45:37.322Z,18.77
2022-12-07T01:51:29.329Z,18.77
2022-12-07T01:57:07.055Z,18.47
2022-12-07T02:02:45.678Z,17.70
2022-12-07T02:08:20.756Z,17.23
2022-12-07T02:11:11.246Z,19.93
2022-12-07T02:14:00.415Z,18.97
2022-12-07T02:26:26.032Z,19.40
2022-12-07T02:32:06.834Z,19.70
2022-12-07T02:37:45.262Z,19.13
2022-12-07T02:40:37.318Z,19.30
2022-12-07T02:46:14.662Z,20.27
2022-12-07T02:49:02.870Z,19.10
2022-12-07T02:51:51.383Z,19.87
2022-12-07T02:57:41.296Z,19.83
2022-12-07T03:03:12.963Z,19.43
2022-12-07T03:08:57.656Z,20.47
2022-12-07T03:11:48.969Z,20.83
2022-12-07T03:17:30.013Z,20.83
2022-12-07T03:23:11.148Z,20.27
2022-12-07T03:28:45.306Z,20.30
2022-12-07T03:34:26.181Z,21.13
2022-12-07T03:40:08.430Z,18.90
2022-12-07T03:42:59.702Z,19.97
2022-12-07T03:48:39.366Z,19.93
2022-12-07T03:54:18.454Z,18.83
2022-12-07T03:59:55.895Z,18.63
2022-12-07T04:05:25.164Z,18.53
2022-12-07T04:11:03.967Z,17.70
2022-12-07T04:14:10.202Z,17.43
2022-12-07T04:19:44.509Z,18.57
2022-12-07T04:25:17.013Z,19.73
2022-12-07T04:28:05.687Z,18.30
2022-12-07T04:33:44.722Z,18.17
2022-12-07T04:39:26.348Z,17.80
2022-12-07T04:44:57.938Z,17.30
2022-12-07T04:47:46.185Z,17.77
2022-12-07T04:50:35.064Z,17.50
2022-12-07T04:56:05.641Z,19.10
2022-12-07T05:04:30.229Z,17.97
2022-12-07T05:07:20.697Z,18.83
2022-12-07T05:10:11.772Z,18.53
2022-12-07T05:13:00.051Z,17.83
2022-12-07T05:18:47.667Z,18.30
2022-12-07T05:24:27.151Z,18.83
2022-12-07T05:27:22.203Z,17.87
2022-12-07T05:30:12.296Z,18.20
2022-12-07T05:35:48.609Z,18.70
2022-12-07T05:41:43.703Z,18.87
2022-12-07T05:47:28.331Z,19.30
2022-12-07T05:52:56.141Z,19.50
2022-12-07T05:58:45.046Z,19.47
2022-12-07T06:04:16.213Z,21.13
2022-12-07T06:09:54.429Z,19.03
2022-12-07T06:12:44.043Z,19.13
2022-12-07T06:18:20.724Z,19.23
2022-12-07T06:23:55.737Z,19.63
2022-12-07T06:26:44.548Z,18.70
2022-12-07T06:32:13.440Z,20.23
2022-12-07T06:38:04.347Z,20.70
2022-12-07T06:43:41.203Z,22.37
2022-12-07T06:49:17.779Z,20.73
2022-12-07T06:52:06.533Z,21.40
2022-12-07T06:54:55.078Z,21.37
2022-12-07T07:00:26.830Z,22.47
2022-12-07T07:03:15.324Z,21.80
2022-12-07T07:08:55.710Z,20.87
2022-12-07T07:14:37.437Z,22.27
2022-12-07T07:20:16.328Z,22.03
2022-12-07T07:25:52.677Z,24.93
2022-12-07T07:28:42.132Z,23.30
2022-12-07T07:31:30.592Z,23.57
2022-12-07T07:37:04.917Z,23.33
2022-12-07T07:42:39.143Z,23.40
2022-12-07T07:48:16.414Z,23.60
2022-12-07T07:53:54.910Z,22.73
2022-12-07T07:56:43.244Z,23.20
2022-12-07T08:02:18.596Z,24.27
2022-12-07T08:05:08.427Z,24.57
2022-12-07T08:16:17.100Z,24.60
2022-12-07T08:21:50.143Z,25.27
2022-12-07T08:27:28.265Z,23.97
2022-12-07T08:33:05.445Z,24.87
2022-12-07T08:38:40.246Z,26.50
2022-12-07T08:44:17.241Z,25.43
2022-12-07T08:49:45.771Z,25.73
2022-12-07T08:55:20.518Z,25.57
2022-12-07T09:00:59.095Z,27.30
2022-12-07T09:06:33.353Z,24.67
2022-12-07T09:12:08.979Z,26.30
2022-12-07T09:17:46.555Z,26.53
2022-12-07T09:20:34.760Z,25.70
2022-12-07T09:26:10.796Z,26.03
2022-12-07T09:31:46.394Z,26.73
2022-12-07T09:37:21.179Z,25.93
2022-12-07T09:42:58.754Z,23.63
2022-12-07T09:48:38.351Z,23.20
2022-12-07T09:54:17.607Z,25.70
2022-12-07T09:59:55.791Z,22.90
2022-12-07T10:05:29.168Z,23.23
2022-12-07T10:11:08.115Z,24.13
2022-12-07T10:16:42.318Z,21.67
2022-12-07T10:19:31.779Z,21.57
2022-12-07T10:25:10.825Z,22.37
2022-12-07T10:33:37.714Z,21.20
2022-12-07T10:39:14.290Z,22.30
2022-12-07T10:44:44.906Z,21.73
2022-12-07T10:50:38.146Z,20.13
2022-12-07T10:53:42.788Z,20.73
2022-12-07T10:57:08.975Z,20.07
2022-12-07T11:00:10.414Z,17.47
2022-12-07T11:03:13.205Z,17.73
2022-12-07T11:09:08.482Z,17.37
2022-12-07T11:17:25.818Z,17.20
2022-12-07T11:23:13.046Z,15.63
2022-12-07T11:31:43.047Z,12.67
2022-12-07T11:34:35.745Z,13.50
2022-12-07T11:40:15.468Z,12.73
2022-12-07T11:45:57.783Z,15.63
2022-12-07T11:51:33.772Z,16.83
2022-12-07T11:57:08.759Z,17.80
2022-12-07T12:00:01.846Z,17.73
2022-12-07T12:02:53.311Z,17.00
2022-12-07T12:11:13.394Z,18.40
2022-12-07T12:20:26.910Z,18.23
2022-12-07T12:23:17.792Z,17.70
2022-12-07T12:26:08.155Z,17.97
2022-12-07T12:31:45.571Z,17.97
2022-12-07T12:34:37.644Z,17.20
2022-12-07T12:37:47.138Z,16.77
2022-12-07T12:40:51.076Z,17.13
2022-12-07T12:46:54.660Z,16.47
2022-12-07T12:53:07.073Z,13.60
2022-12-07T12:59:30.758Z,12.57
2022-12-07T13:08:06.500Z,12.53
2022-12-07T13:11:35.347Z,12.50
2022-12-07T13:18:05.978Z,11.70
2022-12-07T13:24:25.849Z,7.17
2022-12-07T13:35:09.146Z,10.30
2022-12-07T13:38:12.374Z,9.73
2022-12-07T13:44:42.451Z,6.27
2022-12-07T14:02:45.969Z,7.57
2022-12-07T14:05:44.869Z,7.60
2022-12-07T14:09:26.525Z,8.80
2022-12-07T14:43:30.354Z,13.10
2022-12-07T14:46:25.249Z,11.53
2022-12-07T14:57:45.456Z,11.30
2022-12-07T15:06:31.228Z,8.63
2022-12-07T15:23:55.150Z,11.30
2022-12-07T15:33:14.673Z,11.13
2022-12-07T15:36:03.270Z,10.00
2022-12-07T15:41:31.689Z,11.37
2022-12-07T15:47:08.744Z,11.37
2022-12-07T15:52:45.981Z,10.23
2022-12-07T15:58:14.846Z,9.17
2022-12-07T16:03:44.495Z,9.30
2022-12-07T16:06:33.375Z,8.77
2022-12-07T16:09:22.554Z,9.63
2022-12-07T16:14:52.084Z,9.57
2022-12-07T16:20:34.241Z,11.43
2022-12-07T16:26:09.622Z,11.13
2022-12-07T16:31:44.957Z,13.23
2022-12-07T16:34:33.174Z,11.67
2022-12-07T16:37:21.762Z,12.43
2022-12-07T16:40:16.462Z,12.00
2022-12-07T16:45:53.443Z,11.73
2022-12-07T16:51:22.521Z,11.20
2022-12-07T16:56:58.499Z,11.70
2022-12-07T17:02:28.939Z,11.53
2022-12-07T17:05:21.927Z,11.87
2022-12-07T17:11:02.422Z,13.00
2022-12-07T17:14:08.859Z,11.03
2022-12-07T17:19:46.902Z,11.17
2022-12-07T17:25:22.876Z,11.83
2022-12-07T17:30:52.067Z,12.43
2022-12-07T17:33:40.675Z,11.87
2022-12-07T17:36:30.107Z,10.97
2022-12-07T17:42:26.576Z,10.97
2022-12-07T17:45:15.879Z,11.97
2022-12-07T17:51:10.348Z,12.43
2022-12-07T17:56:47.133Z,11.80
2022-12-07T17:59:37.530Z,12.03
2022-12-07T18:02:35.185Z,12.57
2022-12-07T18:05:23.651Z,13.03
2022-12-07T18:08:12.019Z,13.77
2022-12-07T18:11:01.784Z,13.10
2022-12-07T18:13:50.420Z,12.13
2022-12-07T18:19:22.355Z,12.43
2022-12-07T18:25:01.744Z,12.33
2022-12-07T18:31:13.129Z,12.83
2022-12-07T18:36:15.365Z,11.60
2022-12-07T18:39:07.474Z,12.77
2022-12-07T18:44:36.846Z,12.20
2022-12-07T18:47:26.532Z,12.53
2022-12-07T18:50:16.025Z,13.47
2022-12-07T18:55:55.182Z,13.67
2022-12-07T19:01:32.122Z,13.33
2022-12-07T19:04:21.796Z,13.30
2022-12-07T19:09:53.802Z,12.73
2022-12-07T19:15:31.313Z,13.97
2022-12-07T19:18:19.425Z,14.50
2022-12-07T19:24:04.279Z,13.30
2022-12-07T19:29:41.386Z,14.00
2022-12-07T19:35:17.978Z,13.23
2022-12-07T19:38:06.786Z,14.23
2022-12-07T19:40:55.657Z,14.20
2022-12-07T19:46:35.990Z,12.93
2022-12-07T19:52:15.036Z,13.43
2022-12-07T19:57:50.198Z,14.33
2022-12-07T20:00:40.913Z,13.47
2022-12-07T20:06:19.434Z,14.37
2022-12-07T20:12:07.383Z,15.03
2022-12-07T20:14:55.628Z,15.53
2022-12-07T20:17:46.093Z,15.23
2022-12-07T20:23:23.715Z,14.33
2022-12-07T20:28:55.067Z,15.13
2022-12-07T20:31:44.560Z,16.03
2022-12-07T20:37:27.628Z,16.23
2022-12-07T20:43:10.519Z,15.10
2022-12-07T20:48:58.797Z,16.40
2022-12-07T20:54:29.558Z,15.43
2022-12-07T20:57:18.092Z,15.50
2022-12-07T21:03:11.062Z,15.90
2022-12-07T21:08:52.204Z,15.57
2022-12-07T21:11:41.374Z,14.90
2022-12-07T21:14:29.709Z,16.23
2022-12-07T21:17:18.161Z,16.53
2022-12-07T21:26:14.927Z,15.17
2022-12-07T21:29:03.560Z,15.20
2022-12-07T21:34:37.062Z,15.77
2022-12-07T21:40:32.616Z,15.10
2022-12-07T21:43:21.384Z,15.60
2022-12-07T21:49:04.740Z,15.63
2022-12-07T21:54:36.901Z,13.87
2022-12-07T21:57:25.082Z,15.53
2022-12-07T22:00:16.169Z,14.60
2022-12-07T22:05:52.330Z,14.60
2022-12-07T22:11:27.095Z,15.43
2022-12-07T22:17:06.727Z,15.30
2022-12-07T22:22:58.795Z,14.13
2022-12-07T22:25:48.165Z,14.67
2022-12-07T22:31:27.191Z,15.30
2022-12-07T22:37:04.163Z,15.20
2022-12-07T22:39:53.934Z,15.33
2022-12-07T22:42:43.458Z,15.27
2022-12-07T22:45:32.086Z,14.80
2022-12-07T22:48:20.811Z,16.03
2022-12-07T22:51:11.475Z,15.50
2022-12-07T22:54:02.729Z,16.13
2022-12-07T22:56:50.960Z,15.70
2022-12-07T23:02:18.513Z,17.17
2022-12-07T23:05:07.687Z,16.47
2022-12-07T23:07:59.245Z,16.17
2022-12-07T23:13:40.407Z,15.13
2022-12-07T23:19:15.530Z,16.47
2022-12-07T23:22:04.360Z,15.43
2022-12-07T23:27:41.608Z,14.57
2022-12-07T23:30:33.194Z,15.13
2022-12-07T23:33:24.132Z,14.77
2022-12-07T23:36:15.710Z,14.37
2022-12-07T23:41:57.388Z,14.80
2022-12-07T23:47:34.510Z,15.27
2022-12-07T23:53:04.079Z,14.27
2022-12-07T23:58:36.423Z,13.57
